createdAt,value
2017-06-09T00:01:07.791Z,0
2017-06-09T00:02:53.218Z,0
2017-06-09T00:03:53.245Z,0
2017-06-09T00:04:53.273Z,0
2017-06-09T00:07:53.342Z,0
2017-06-09T00:09:53.389Z,0
2017-06-09T00:10:53.420Z,0
2017-06-09T00:11:53.134Z,0
2017-06-09T00:12:53.162Z,0
2017-06-09T00:13:53.487Z,0
2017-06-09T00:14:53.207Z,0
2017-06-09T00:16:08.153Z,0
2017-06-09T00:17:08.177Z,0
2017-06-09T00:17:53.282Z,0
2017-06-09T00:19:08.223Z,0
2017-06-09T00:19:53.632Z,0
2017-06-09T00:22:08.301Z,0
2017-06-09T00:22:53.104Z,0
2017-06-09T00:23:53.426Z,0
2017-06-09T00:24:53.757Z,0
2017-06-09T00:25:53.527Z,0
2017-06-09T00:26:53.802Z,0
2017-06-09T00:28:23.061Z,0
2017-06-09T00:28:53.850Z,0
2017-06-09T00:29:53.885Z,0
2017-06-09T00:30:53.604Z,0
2017-06-09T00:31:53.924Z,0
2017-06-09T00:32:53.946Z,0
2017-06-09T00:33:53.366Z,0
2017-06-09T00:34:53.993Z,0
2017-06-09T00:36:53.741Z,0
2017-06-09T00:37:54.070Z,0
2017-06-09T00:38:54.096Z,0
2017-06-09T00:39:54.115Z,0
2017-06-09T00:41:08.758Z,0
2017-06-09T00:41:53.864Z,0
2017-06-09T00:42:54.187Z,0
2017-06-09T00:43:54.209Z,0
2017-06-09T00:45:23.471Z,0
2017-06-09T00:46:08.877Z,0
2017-06-09T00:46:54.288Z,0
2017-06-09T00:48:08.925Z,0
2017-06-09T00:48:54.581Z,0
2017-06-09T00:49:54.054Z,0
2017-06-09T00:50:54.079Z,0
2017-06-09T00:51:54.405Z,0
2017-06-09T00:52:54.430Z,0
2017-06-09T00:53:54.149Z,0
2017-06-09T00:55:54.501Z,0
2017-06-09T00:56:54.526Z,0
2017-06-09T00:57:54.553Z,0
2017-06-09T00:58:54.269Z,0
2017-06-09T01:00:09.219Z,0
2017-06-09T01:00:54.320Z,0
2017-06-09T01:01:54.648Z,0
2017-06-09T01:02:54.668Z,0
2017-06-09T01:04:09.010Z,0
2017-06-09T01:04:54.720Z,0
2017-06-09T01:05:54.782Z,0
2017-06-09T01:06:54.467Z,0
2017-06-09T01:08:54.507Z,0
2017-06-09T01:09:54.837Z,0
2017-06-09T01:12:09.503Z,0
2017-06-09T01:12:54.908Z,0
2017-06-09T01:13:54.628Z,0
2017-06-09T01:14:54.956Z,0
2017-06-09T01:16:09.598Z,0
2017-06-09T01:17:09.621Z,0
2017-06-09T01:17:55.031Z,0
2017-06-09T01:18:55.049Z,0
2017-06-09T01:20:09.695Z,0
2017-06-09T01:21:09.716Z,0
2017-06-09T01:22:09.739Z,0
2017-06-09T01:24:54.893Z,0
2017-06-09T01:25:55.222Z,0
2017-06-09T01:26:55.242Z,0
2017-06-09T01:27:55.264Z,0
2017-06-09T01:28:55.291Z,0
2017-06-09T01:29:55.314Z,0
2017-06-09T01:30:55.337Z,0
2017-06-09T01:31:55.058Z,0
2017-06-09T01:33:24.618Z,0
2017-06-09T01:34:10.028Z,0
2017-06-09T01:34:55.434Z,0
2017-06-09T01:36:09.822Z,0
2017-06-09T01:37:10.097Z,0
2017-06-09T01:37:55.200Z,0
2017-06-09T01:38:55.527Z,0
2017-06-09T01:39:55.553Z,0
2017-06-09T01:40:55.577Z,0
2017-06-09T01:42:55.622Z,0
2017-06-09T01:43:55.344Z,0
2017-06-09T01:45:09.984Z,0
2017-06-09T01:45:55.691Z,0
2017-06-09T01:46:55.411Z,0
2017-06-09T01:47:55.743Z,0
2017-06-09T01:49:24.998Z,0
2017-06-09T01:49:55.795Z,0
2017-06-09T01:53:10.475Z,0
2017-06-09T01:53:55.886Z,0
2017-06-09T01:54:55.602Z,0
2017-06-09T01:55:55.931Z,0
2017-06-09T01:56:56.005Z,0
2017-06-09T01:59:10.317Z,0
2017-06-09T01:59:56.024Z,0
2017-06-09T02:00:55.744Z,0
2017-06-09T02:02:10.387Z,0
2017-06-09T02:03:10.739Z,0
2017-06-09T02:04:25.354Z,0
2017-06-09T02:04:56.149Z,0
2017-06-09T02:06:10.482Z,0
2017-06-09T02:06:56.192Z,0
2017-06-09T02:07:56.262Z,0
2017-06-09T02:08:56.247Z,0
2017-06-09T02:09:56.263Z,0
2017-06-09T02:11:56.316Z,0
2017-06-09T02:13:56.358Z,0
2017-06-09T02:14:56.078Z,0
2017-06-09T02:16:10.414Z,0
2017-06-09T02:16:56.126Z,0
2017-06-09T02:17:56.454Z,0
2017-06-09T02:18:56.474Z,0
2017-06-09T02:20:11.114Z,0
2017-06-09T02:20:56.529Z,0
2017-06-09T02:22:10.858Z,0
2017-06-09T02:23:11.187Z,0
2017-06-09T02:23:56.587Z,0
2017-06-09T02:25:11.230Z,0
2017-06-09T02:25:56.636Z,0
2017-06-09T02:26:56.387Z,0
2017-06-09T02:27:56.685Z,0
2017-06-09T02:28:56.721Z,0
2017-06-09T02:30:56.764Z,0
2017-06-09T02:31:56.783Z,0
2017-06-09T02:33:11.422Z,0
2017-06-09T02:34:11.448Z,0
2017-06-09T02:35:25.780Z,0
2017-06-09T02:36:56.948Z,5
2017-06-09T02:37:56.917Z,5
2017-06-09T02:39:11.264Z,5
2017-06-09T02:39:56.968Z,5
2017-06-09T02:40:56.990Z,5
2017-06-09T02:41:57.019Z,5
2017-06-09T02:42:56.732Z,5
2017-06-09T02:43:57.058Z,5
2017-06-09T02:45:56.810Z,5
2017-06-09T02:46:57.128Z,5
2017-06-09T02:47:57.150Z,10
2017-06-09T02:49:11.793Z,10
2017-06-09T02:50:11.821Z,10
2017-06-09T02:50:57.224Z,10
2017-06-09T02:52:26.480Z,15
2017-06-09T02:52:57.274Z,15
2017-06-09T02:54:11.911Z,15
2017-06-09T02:55:11.631Z,15
2017-06-09T02:56:11.957Z,15
2017-06-09T02:56:57.069Z,20
2017-06-09T02:57:57.384Z,20
2017-06-09T02:58:57.410Z,20
2017-06-09T02:59:57.430Z,20
2017-06-09T03:00:57.456Z,20
2017-06-09T03:01:57.529Z,25
2017-06-09T03:02:57.502Z,25
2017-06-09T03:03:57.528Z,25
2017-06-09T03:04:57.249Z,25
2017-06-09T03:05:57.268Z,30
2017-06-09T03:06:57.598Z,30
2017-06-09T03:07:57.627Z,30
2017-06-09T03:08:57.343Z,30
2017-06-09T03:09:57.668Z,35
2017-06-09T03:11:12.326Z,35
2017-06-09T03:11:57.713Z,35
2017-06-09T03:12:57.434Z,40
2017-06-09T03:13:57.808Z,40
2017-06-09T03:14:57.785Z,45
2017-06-09T03:15:57.808Z,45
2017-06-09T03:16:57.828Z,45
2017-06-09T03:17:57.856Z,45
2017-06-09T03:18:57.881Z,45
2017-06-09T03:20:12.522Z,50
2017-06-09T03:20:57.619Z,50
2017-06-09T03:21:57.945Z,55
2017-06-09T03:23:12.590Z,55
2017-06-09T03:24:12.660Z,60
2017-06-09T03:24:58.020Z,60
2017-06-09T03:26:12.088Z,65
2017-06-09T03:26:58.064Z,65
2017-06-09T03:27:57.483Z,75
2017-06-09T03:29:57.833Z,70
2017-06-09T03:30:58.156Z,75
2017-06-09T03:31:58.179Z,75
2017-06-09T03:32:57.903Z,75
2017-06-09T03:34:12.590Z,75
2017-06-09T03:34:58.249Z,75
2017-06-09T03:36:27.208Z,80
2017-06-09T03:36:58.306Z,80
2017-06-09T03:37:58.321Z,85
2017-06-09T03:38:58.346Z,100
2017-06-09T03:39:58.371Z,100
2017-06-09T03:40:58.398Z,85
2017-06-09T03:41:58.416Z,85
2017-06-09T03:42:58.438Z,85
2017-06-09T03:43:58.465Z,85
2017-06-09T03:44:58.487Z,90
2017-06-09T03:45:58.558Z,90
2017-06-09T03:46:58.540Z,90
2017-06-09T03:47:58.556Z,90
2017-06-09T03:48:58.279Z,90
2017-06-09T03:49:58.607Z,95
2017-06-09T03:50:58.633Z,90
2017-06-09T03:51:58.654Z,90
2017-06-09T03:52:58.678Z,90
2017-06-09T03:54:13.316Z,95
2017-06-09T03:55:13.345Z,95
2017-06-09T03:55:58.757Z,95
2017-06-09T03:56:58.823Z,100
2017-06-09T03:58:28.038Z,100
2017-06-09T03:58:58.821Z,100
2017-06-09T04:00:13.460Z,100
2017-06-09T04:00:58.867Z,105
2017-06-09T04:01:58.891Z,105
2017-06-09T04:02:58.913Z,105
2017-06-09T04:05:58.986Z,110
2017-06-09T04:06:58.706Z,115
2017-06-09T04:07:59.030Z,140
2017-06-09T04:08:59.057Z,230
2017-06-09T04:09:58.777Z,360
2017-06-09T04:10:59.107Z,500
2017-06-09T04:11:58.824Z,570
2017-06-09T04:12:58.851Z,650
2017-06-09T04:14:13.797Z,705
2017-06-09T04:15:13.820Z,745
2017-06-09T04:15:59.232Z,835
2017-06-09T04:16:59.306Z,920
2017-06-09T04:17:59.277Z,930
2017-06-09T04:18:59.301Z,965
2017-06-09T04:21:13.975Z,1030
2017-06-09T04:21:59.380Z,1100
2017-06-09T04:22:59.408Z,1050
2017-06-09T04:24:14.050Z,1010
2017-06-09T04:25:14.080Z,1025
2017-06-09T04:25:59.182Z,1045
2017-06-09T04:27:28.445Z,1005
2017-06-09T04:27:59.541Z,1035
2017-06-09T04:28:59.268Z,1045
2017-06-09T04:30:14.214Z,1100
2017-06-09T04:31:14.242Z,1105
2017-06-09T04:31:59.355Z,1115
2017-06-09T04:32:59.680Z,1170
2017-06-09T04:33:59.709Z,1145
2017-06-09T04:34:59.738Z,1080
2017-06-09T04:35:59.466Z,980
2017-06-09T04:36:59.800Z,1025
2017-06-09T04:37:59.831Z,1155
2017-06-09T04:39:14.479Z,1185
2017-06-09T04:39:59.891Z,1230
2017-06-09T04:40:59.920Z,1255
2017-06-09T04:42:28.884Z,1240
2017-06-09T04:43:29.218Z,1285
2017-06-09T04:44:00.013Z,1295
2017-06-09T04:45:00.042Z,1250
2017-06-09T04:46:59.802Z,1300
2017-06-09T04:48:14.756Z,1260
2017-06-09T04:49:00.171Z,1245
2017-06-09T04:50:00.200Z,1245
2017-06-09T04:50:59.932Z,1230
2017-06-09T04:51:59.964Z,975
2017-06-09T04:53:14.921Z,985
2017-06-09T04:54:00.331Z,1130
2017-06-09T04:55:00.363Z,1210
2017-06-09T04:56:00.398Z,1275
2017-06-09T04:57:00.182Z,1255
2017-06-09T04:58:00.161Z,1250
2017-06-09T04:59:00.203Z,1200
2017-06-09T05:00:00.536Z,1270
2017-06-09T05:01:14.584Z,1255
2017-06-09T05:02:15.219Z,1180
2017-06-09T05:03:15.250Z,1190
2017-06-09T05:04:00.666Z,1285
2017-06-09T05:05:00.704Z,1325
2017-06-09T05:06:00.738Z,1155
2017-06-09T05:07:00.766Z,1110
2017-06-09T05:08:00.533Z,1160
2017-06-09T05:09:00.838Z,1235
2017-06-09T05:10:00.869Z,1360
2017-06-09T05:11:00.601Z,1325
2017-06-09T05:12:00.949Z,1345
2017-06-09T05:13:30.216Z,1395
2017-06-09T05:14:01.008Z,1385
2017-06-09T05:15:15.668Z,1395
2017-06-09T05:16:01.079Z,1375
2017-06-09T05:17:01.115Z,1320
2017-06-09T05:18:01.200Z,1345
2017-06-09T05:19:01.184Z,1360
2017-06-09T05:20:01.222Z,1320
2017-06-09T05:21:01.255Z,1285
2017-06-09T05:22:01.295Z,1255
2017-06-09T05:23:01.328Z,1270
2017-06-09T05:24:01.365Z,1295
2017-06-09T05:25:01.096Z,1235
2017-06-09T05:26:00.826Z,1235
2017-06-09T05:27:01.472Z,1215
2017-06-09T05:28:16.132Z,1200
2017-06-09T05:29:15.858Z,1215
2017-06-09T05:30:16.202Z,1270
2017-06-09T05:31:01.011Z,1305
2017-06-09T05:32:01.647Z,1225
2017-06-09T05:33:16.306Z,1175
2017-06-09T05:34:01.720Z,1185
2017-06-09T05:35:01.455Z,1220
2017-06-09T05:36:01.532Z,1240
2017-06-09T05:37:01.882Z,1220
2017-06-09T05:39:01.902Z,1235
2017-06-09T05:40:01.944Z,1250
2017-06-09T05:41:16.597Z,1250
2017-06-09T05:42:02.008Z,1270
2017-06-09T05:43:16.667Z,1265
2017-06-09T05:44:16.703Z,1235
2017-06-09T05:45:02.120Z,1220
2017-06-09T05:46:02.154Z,1220
2017-06-09T05:47:16.813Z,1190
2017-06-09T05:48:02.226Z,1180
2017-06-09T05:49:16.883Z,1215
2017-06-09T05:50:02.298Z,1245
2017-06-09T05:51:02.039Z,1255
2017-06-09T05:52:02.372Z,1240
2017-06-09T05:53:02.412Z,1235
2017-06-09T05:54:02.139Z,1220
2017-06-09T05:55:02.177Z,1245
2017-06-09T05:56:02.214Z,1315
2017-06-09T05:57:02.554Z,1285
2017-06-09T05:58:02.591Z,1220
2017-06-09T05:59:17.250Z,1255
2017-06-09T06:00:17.349Z,1345
2017-06-09T06:01:02.703Z,1360
2017-06-09T06:02:31.980Z,1380
2017-06-09T06:03:02.776Z,1445
2017-06-09T06:04:02.820Z,1445
2017-06-09T06:05:17.168Z,1430
2017-06-09T06:06:02.885Z,1380
2017-06-09T06:08:02.961Z,1345
2017-06-09T06:09:02.692Z,1290
2017-06-09T06:10:03.036Z,1200
2017-06-09T06:11:03.081Z,1085
2017-06-09T06:12:17.735Z,1030
2017-06-09T06:13:02.845Z,1035
2017-06-09T06:14:17.806Z,1180
2017-06-09T06:15:03.228Z,1275
2017-06-09T06:16:17.879Z,1290
2017-06-09T06:17:03.001Z,1245
2017-06-09T06:18:32.575Z,1300
2017-06-09T06:19:03.385Z,1305
2017-06-09T06:20:03.105Z,1325
2017-06-09T06:21:17.770Z,1365
2017-06-09T06:22:03.482Z,1390
2017-06-09T06:23:03.529Z,1435
2017-06-09T06:24:18.180Z,1395
2017-06-09T06:25:03.598Z,1310
2017-06-09T06:27:03.375Z,1305
2017-06-09T06:28:03.714Z,1345
2017-06-09T06:29:18.070Z,1345
2017-06-09T06:30:18.415Z,1335
2017-06-09T06:31:03.880Z,1315
2017-06-09T06:32:03.867Z,1330
2017-06-09T06:34:03.952Z,1320
2017-06-09T06:35:03.685Z,1290
2017-06-09T06:36:18.389Z,1245
2017-06-09T06:37:04.101Z,1285
2017-06-09T06:38:18.717Z,1285
2017-06-09T06:39:18.757Z,1230
2017-06-09T06:40:04.182Z,1220
2017-06-09T06:41:18.841Z,1150
2017-06-09T06:42:04.253Z,1205
2017-06-09T06:43:03.994Z,1225
2017-06-09T06:44:18.653Z,1155
2017-06-09T06:45:04.372Z,1210
2017-06-09T06:46:04.415Z,1180
2017-06-09T06:47:04.450Z,1145
2017-06-09T06:48:04.489Z,1050
2017-06-09T06:49:04.528Z,1010
2017-06-09T06:50:04.573Z,1025
2017-06-09T06:51:04.606Z,975
2017-06-09T06:52:19.266Z,990
2017-06-09T06:53:19.305Z,950
2017-06-09T06:54:04.421Z,1015
2017-06-09T06:56:04.806Z,850
2017-06-09T06:57:04.842Z,895
2017-06-09T06:58:04.875Z,840
2017-06-09T06:59:04.919Z,810
2017-06-09T07:00:04.956Z,675
2017-06-09T07:01:04.441Z,735
2017-06-09T07:02:05.078Z,705
2017-06-09T07:03:05.068Z,710
2017-06-09T07:04:05.105Z,690
2017-06-09T07:05:19.767Z,650
2017-06-09T07:06:05.183Z,655
2017-06-09T07:07:05.220Z,570
2017-06-09T07:08:19.883Z,470
2017-06-09T07:09:05.299Z,525
2017-06-09T07:10:05.340Z,620
2017-06-09T07:11:05.372Z,665
2017-06-09T07:13:05.445Z,660
2017-06-09T07:14:05.481Z,630
2017-06-09T07:15:05.574Z,645
2017-06-09T07:16:20.187Z,590
2017-06-09T07:17:05.599Z,555
2017-06-09T07:18:05.328Z,530
2017-06-09T07:19:20.290Z,530
2017-06-09T07:20:34.646Z,545
2017-06-09T07:21:13.566Z,600
2017-06-09T07:22:05.527Z,570
2017-06-09T07:23:05.821Z,535
2017-06-09T07:24:20.182Z,615
2017-06-09T07:25:05.895Z,665
2017-06-09T07:26:05.933Z,705
2017-06-09T07:27:05.724Z,755
2017-06-09T07:29:06.044Z,1340
2017-06-09T07:30:06.083Z,1035
2017-06-09T07:32:06.156Z,945
2017-06-09T07:33:06.191Z,875
2017-06-09T07:34:06.229Z,950
2017-06-09T07:35:06.265Z,945
2017-06-09T07:36:06.306Z,565
2017-06-09T07:37:35.280Z,815
2017-06-09T07:38:06.380Z,870
2017-06-09T07:39:21.042Z,890
2017-06-09T07:40:21.079Z,910
2017-06-09T07:41:06.494Z,910
2017-06-09T07:42:06.535Z,920
2017-06-09T07:43:05.959Z,885
2017-06-09T07:44:06.354Z,890
2017-06-09T07:45:06.344Z,935
2017-06-09T07:46:06.680Z,955
2017-06-09T07:47:06.721Z,925
2017-06-09T07:48:06.456Z,895
2017-06-09T07:49:21.418Z,855
2017-06-09T07:50:06.835Z,850
2017-06-09T07:51:06.871Z,805
2017-06-09T07:52:21.528Z,790
2017-06-09T07:53:36.184Z,810
2017-06-09T07:54:06.983Z,810
2017-06-09T07:55:06.715Z,805
2017-06-09T07:56:21.679Z,795
2017-06-09T07:57:07.105Z,785
2017-06-09T07:58:07.133Z,755
2017-06-09T07:59:07.174Z,745
2017-06-09T08:00:07.212Z,735
2017-06-09T08:01:07.247Z,695
2017-06-09T08:03:07.022Z,620
2017-06-09T08:04:07.362Z,710
2017-06-09T08:05:07.146Z,700
2017-06-09T08:06:07.437Z,685
2017-06-09T08:07:07.474Z,670
2017-06-09T08:08:07.518Z,655
2017-06-09T08:09:07.248Z,660
2017-06-09T08:10:07.589Z,630
2017-06-09T08:12:07.363Z,595
2017-06-09T08:13:07.708Z,585
2017-06-09T08:14:07.740Z,575
2017-06-09T08:16:21.832Z,550
2017-06-09T08:17:07.855Z,550
2017-06-09T08:18:07.282Z,525
2017-06-09T08:19:07.933Z,525
2017-06-09T08:20:07.408Z,510
2017-06-09T08:21:08.004Z,480
2017-06-09T08:22:08.050Z,475
2017-06-09T08:23:08.086Z,475
2017-06-09T08:24:07.814Z,485
2017-06-09T08:25:08.162Z,485
2017-06-09T08:26:08.189Z,475
2017-06-09T08:27:08.277Z,475
2017-06-09T08:28:08.263Z,495
2017-06-09T08:29:08.304Z,485
2017-06-09T08:30:07.737Z,480
2017-06-09T08:31:08.379Z,475
2017-06-09T08:33:08.195Z,465
2017-06-09T08:34:08.496Z,450
2017-06-09T08:35:08.530Z,450
2017-06-09T08:36:08.262Z,445
2017-06-09T08:37:23.228Z,435
2017-06-09T08:38:08.646Z,430
2017-06-09T08:39:08.733Z,415
2017-06-09T08:40:08.115Z,410
2017-06-09T08:41:08.754Z,405
2017-06-09T08:42:08.788Z,400
2017-06-09T08:43:23.448Z,400
2017-06-09T08:45:08.904Z,405
2017-06-09T08:46:08.983Z,420
2017-06-09T08:47:08.983Z,415
2017-06-09T08:48:09.013Z,420
2017-06-09T08:49:09.052Z,405
2017-06-09T08:50:08.783Z,410
2017-06-09T08:51:08.832Z,410
2017-06-09T08:52:23.481Z,420
2017-06-09T08:53:08.900Z,405
2017-06-09T08:54:23.856Z,400
2017-06-09T08:55:38.515Z,400
2017-06-09T08:56:09.013Z,395
2017-06-09T08:57:23.966Z,385
2017-06-09T08:58:09.081Z,395
2017-06-09T08:59:24.040Z,395
2017-06-09T09:00:09.188Z,390
2017-06-09T09:01:09.495Z,395
2017-06-09T09:02:09.532Z,385
2017-06-09T09:03:09.269Z,385
2017-06-09T09:04:09.607Z,375
2017-06-09T09:05:09.647Z,370
2017-06-09T09:06:23.998Z,355
2017-06-09T09:07:09.417Z,345
2017-06-09T09:08:24.374Z,325
2017-06-09T09:09:09.789Z,320
2017-06-09T09:10:24.148Z,315
2017-06-09T09:11:09.867Z,310
2017-06-09T09:12:09.907Z,305
2017-06-09T09:13:09.942Z,305
2017-06-09T09:14:09.668Z,305
2017-06-09T09:15:24.630Z,300
2017-06-09T09:16:10.046Z,300
2017-06-09T09:17:10.091Z,300
2017-06-09T09:18:10.121Z,295
2017-06-09T09:19:10.157Z,295
2017-06-09T09:20:10.197Z,295
2017-06-09T09:21:10.229Z,290
2017-06-09T09:22:10.274Z,290
2017-06-09T09:23:10.339Z,285
2017-06-09T09:24:10.339Z,285
2017-06-09T09:25:10.371Z,285
2017-06-09T09:26:10.108Z,285
2017-06-09T09:27:10.460Z,285
2017-06-09T09:28:09.875Z,280
2017-06-09T09:29:10.215Z,280
2017-06-09T09:30:10.556Z,280
2017-06-09T09:31:24.913Z,285
2017-06-09T09:32:10.324Z,285
2017-06-09T09:33:10.360Z,280
2017-06-09T09:35:10.740Z,275
2017-06-09T09:36:10.474Z,270
2017-06-09T09:37:10.809Z,270
2017-06-09T09:39:10.581Z,270
2017-06-09T09:40:10.615Z,270
2017-06-09T09:41:10.951Z,265
2017-06-09T09:42:10.737Z,265
2017-06-09T09:43:10.416Z,265
2017-06-09T09:44:10.455Z,265
2017-06-09T09:45:10.796Z,265
2017-06-09T09:46:25.754Z,265
2017-06-09T09:47:11.178Z,260
2017-06-09T09:48:11.207Z,260
2017-06-09T09:49:11.238Z,260
2017-06-09T09:50:10.983Z,260
2017-06-09T09:51:11.009Z,255
2017-06-09T09:52:11.352Z,255
2017-06-09T09:53:11.080Z,255
2017-06-09T09:54:25.736Z,250
2017-06-09T09:55:11.152Z,250
2017-06-09T09:56:11.239Z,250
2017-06-09T09:57:11.531Z,250
2017-06-09T09:58:26.186Z,250
2017-06-09T09:59:40.533Z,250
2017-06-09T10:00:25.647Z,250
2017-06-09T10:01:11.367Z,250
2017-06-09T10:02:11.098Z,250
2017-06-09T10:03:11.741Z,250
2017-06-09T10:04:11.475Z,250
2017-06-09T10:05:11.543Z,245
2017-06-09T10:06:11.539Z,250
2017-06-09T10:07:11.574Z,245
2017-06-09T10:08:11.918Z,245
2017-06-09T10:09:11.646Z,245
2017-06-09T10:10:11.988Z,245
2017-06-09T10:11:11.414Z,245
2017-06-09T10:12:12.061Z,245
2017-06-09T10:13:26.712Z,240
2017-06-09T10:14:12.125Z,240
2017-06-09T10:15:12.166Z,240
2017-06-09T10:16:26.515Z,235
2017-06-09T10:17:12.230Z,235
2017-06-09T10:18:26.584Z,235
2017-06-09T10:19:12.301Z,235
2017-06-09T10:20:12.341Z,230
2017-06-09T10:21:12.076Z,230
2017-06-09T10:23:12.447Z,230
2017-06-09T10:24:12.484Z,225
2017-06-09T10:25:12.207Z,225
2017-06-09T10:26:11.936Z,225
2017-06-09T10:27:12.279Z,225
2017-06-09T10:28:12.617Z,225
2017-06-09T10:29:12.097Z,220
2017-06-09T10:30:12.078Z,220
2017-06-09T10:31:27.336Z,220
2017-06-09T10:32:12.455Z,220
2017-06-09T10:33:12.807Z,220
2017-06-09T10:34:27.440Z,220
2017-06-09T10:35:12.559Z,220
2017-06-09T10:36:27.507Z,220
2017-06-09T10:37:12.629Z,225
2017-06-09T10:38:12.653Z,220
2017-06-09T10:39:13.013Z,220
2017-06-09T10:40:12.726Z,220
2017-06-09T10:41:13.070Z,220
2017-06-09T10:42:27.411Z,220
2017-06-09T10:43:12.857Z,220
2017-06-09T10:44:13.159Z,220
2017-06-09T10:45:13.197Z,220
2017-06-09T10:46:12.926Z,220
2017-06-09T10:47:12.960Z,220
2017-06-09T10:48:13.011Z,215
2017-06-09T10:50:27.989Z,210
2017-06-09T10:51:27.409Z,210
2017-06-09T10:52:13.141Z,205
2017-06-09T10:53:13.504Z,205
2017-06-09T10:54:13.194Z,210
2017-06-09T10:55:13.538Z,215
2017-06-09T10:56:13.570Z,215
2017-06-09T10:57:13.025Z,210
2017-06-09T10:58:13.045Z,210
2017-06-09T10:59:13.667Z,210
2017-06-09T11:00:13.400Z,205
2017-06-09T11:01:13.731Z,205
2017-06-09T11:02:13.465Z,200
2017-06-09T11:03:13.800Z,195
2017-06-09T11:04:13.530Z,175
2017-06-09T11:05:13.560Z,160
2017-06-09T11:06:28.215Z,175
2017-06-09T11:07:13.983Z,180
2017-06-09T11:09:13.698Z,180
2017-06-09T11:10:13.727Z,195
2017-06-09T11:11:14.068Z,190
2017-06-09T11:12:14.098Z,195
2017-06-09T11:13:13.876Z,200
2017-06-09T11:14:13.860Z,195
2017-06-09T11:15:28.844Z,195
2017-06-09T11:16:28.249Z,205
2017-06-09T11:17:28.888Z,210
2017-06-09T11:18:14.297Z,210
2017-06-09T11:19:14.340Z,215
2017-06-09T11:20:14.407Z,225
2017-06-09T11:21:29.014Z,225
2017-06-09T11:22:14.428Z,235
2017-06-09T11:23:14.214Z,230
2017-06-09T11:24:13.887Z,230
2017-06-09T11:25:14.529Z,240
2017-06-09T11:26:14.258Z,235
2017-06-09T11:27:14.291Z,220
2017-06-09T11:28:29.247Z,215
2017-06-09T11:29:14.713Z,225
2017-06-09T11:30:14.698Z,230
2017-06-09T11:31:14.417Z,230
2017-06-09T11:32:29.373Z,235
2017-06-09T11:33:14.790Z,230
2017-06-09T11:34:29.436Z,230
2017-06-09T11:35:14.852Z,230
2017-06-09T11:36:14.884Z,220
2017-06-09T11:37:29.539Z,210
2017-06-09T11:38:14.958Z,205
2017-06-09T11:39:14.991Z,210
2017-06-09T11:40:14.714Z,200
2017-06-09T11:41:15.048Z,195
2017-06-09T11:42:14.781Z,205
2017-06-09T11:43:15.142Z,195
2017-06-09T11:44:15.195Z,205
2017-06-09T11:45:14.883Z,205
2017-06-09T11:46:14.602Z,205
2017-06-09T11:47:29.560Z,200
2017-06-09T11:48:14.977Z,200
2017-06-09T11:49:15.005Z,205
2017-06-09T11:50:29.962Z,195
2017-06-09T11:51:15.375Z,195
2017-06-09T11:52:15.106Z,195
2017-06-09T11:54:29.484Z,195
2017-06-09T11:55:30.124Z,190
2017-06-09T11:56:15.589Z,180
2017-06-09T11:57:30.189Z,175
2017-06-09T11:58:15.599Z,155
2017-06-09T11:59:30.259Z,155
2017-06-09T12:00:15.723Z,175
2017-06-09T12:03:15.765Z,185
2017-06-09T12:04:29.808Z,185
2017-06-09T12:05:15.525Z,185
2017-06-09T12:06:15.862Z,190
2017-06-09T12:07:15.895Z,190
2017-06-09T12:08:15.929Z,190
2017-06-09T12:09:30.578Z,195
2017-06-09T12:10:15.687Z,190
2017-06-09T12:11:16.072Z,190
2017-06-09T12:12:15.754Z,195
2017-06-09T12:13:15.785Z,195
2017-06-09T12:14:16.118Z,195
2017-06-09T12:15:16.151Z,190
2017-06-09T12:17:16.220Z,190
2017-06-09T12:18:15.943Z,195
2017-06-09T12:20:16.014Z,195
2017-06-09T12:21:16.346Z,190
2017-06-09T12:22:16.377Z,190
2017-06-09T12:23:45.651Z,185
2017-06-09T12:24:16.442Z,185
2017-06-09T12:25:31.396Z,185
2017-06-09T12:26:16.505Z,190
2017-06-09T12:27:16.240Z,190
2017-06-09T12:29:15.997Z,185
2017-06-09T12:31:16.677Z,150
2017-06-09T12:32:16.753Z,170
2017-06-09T12:33:16.739Z,175
2017-06-09T12:34:16.773Z,185
2017-06-09T12:35:16.800Z,180
2017-06-09T12:36:16.529Z,175
2017-06-09T12:37:31.178Z,175
2017-06-09T12:38:16.294Z,155
2017-06-09T12:39:16.929Z,140
2017-06-09T12:40:16.657Z,155
2017-06-09T12:41:46.245Z,175
2017-06-09T12:42:17.028Z,190
2017-06-09T12:43:16.755Z,195
2017-06-09T12:44:17.088Z,190
2017-06-09T12:45:17.122Z,185
2017-06-09T12:46:17.160Z,185
2017-06-09T12:48:17.236Z,200
2017-06-09T12:49:17.255Z,215
2017-06-09T12:50:17.289Z,220
2017-06-09T12:52:17.351Z,225
2017-06-09T12:53:32.000Z,230
2017-06-09T12:54:32.028Z,230
2017-06-09T12:56:31.792Z,235
2017-06-09T12:57:32.176Z,235
2017-06-09T12:59:32.191Z,235
2017-06-09T13:00:17.306Z,235
2017-06-09T13:01:17.642Z,225
2017-06-09T13:02:17.368Z,205
2017-06-09T13:03:17.395Z,200
2017-06-09T13:04:17.757Z,155
2017-06-09T13:05:17.460Z,175
2017-06-09T13:06:17.492Z,175
2017-06-09T13:07:17.877Z,185
2017-06-09T13:08:17.259Z,180
2017-06-09T13:09:46.524Z,155
2017-06-09T13:10:17.628Z,145
2017-06-09T13:11:17.955Z,150
2017-06-09T13:12:17.989Z,175
2017-06-09T13:13:17.714Z,190
2017-06-09T13:16:18.118Z,235
2017-06-09T13:17:18.148Z,240
2017-06-09T13:18:18.181Z,235
2017-06-09T13:19:18.211Z,200
2017-06-09T13:20:18.246Z,220
2017-06-09T13:21:17.972Z,205
2017-06-09T13:22:18.320Z,185
2017-06-09T13:23:18.340Z,160
2017-06-09T13:24:18.067Z,175
2017-06-09T13:25:33.023Z,170
2017-06-09T13:26:18.132Z,170
2017-06-09T13:27:18.467Z,175
2017-06-09T13:28:33.124Z,185
2017-06-09T13:29:18.531Z,185
2017-06-09T13:30:18.573Z,200
2017-06-09T13:31:18.293Z,215
2017-06-09T13:32:33.245Z,225
2017-06-09T13:33:18.356Z,225
2017-06-09T13:34:18.692Z,205
2017-06-09T13:35:18.421Z,190
2017-06-09T13:37:18.482Z,220
2017-06-09T13:38:18.819Z,230
2017-06-09T13:39:18.848Z,230
2017-06-09T13:40:18.280Z,225
2017-06-09T13:41:33.536Z,220
2017-06-09T13:42:47.881Z,210
2017-06-09T13:43:19.029Z,220
2017-06-09T13:45:18.741Z,210
2017-06-09T13:46:33.694Z,220
2017-06-09T13:47:18.805Z,230
2017-06-09T13:48:19.139Z,230
2017-06-09T13:49:18.868Z,235
2017-06-09T13:50:19.252Z,235
2017-06-09T13:51:33.911Z,215
2017-06-09T13:52:19.273Z,235
2017-06-09T13:53:33.970Z,235
2017-06-09T13:54:19.329Z,230
2017-06-09T13:55:19.367Z,225
2017-06-09T13:56:19.142Z,215
2017-06-09T13:57:48.668Z,210
2017-06-09T13:58:34.079Z,190
2017-06-09T13:59:19.494Z,185
2017-06-09T14:00:34.144Z,180
2017-06-09T14:01:19.553Z,180
2017-06-09T14:02:19.590Z,180
2017-06-09T14:03:19.621Z,180
2017-06-09T14:06:19.411Z,175
2017-06-09T14:07:19.752Z,175
2017-06-09T14:08:19.785Z,180
2017-06-09T14:10:19.851Z,185
2017-06-09T14:11:19.573Z,190
2017-06-09T14:12:34.552Z,195
2017-06-09T14:13:19.946Z,200
2017-06-09T14:14:19.979Z,200
2017-06-09T14:16:34.659Z,205
2017-06-09T14:17:34.690Z,210
2017-06-09T14:18:20.100Z,210
2017-06-09T14:19:20.133Z,210
2017-06-09T14:22:19.925Z,200
2017-06-09T14:25:20.027Z,195
2017-06-09T14:26:34.979Z,190
2017-06-09T14:27:20.144Z,190
2017-06-09T14:28:35.047Z,185
2017-06-09T14:29:35.073Z,185
2017-06-09T14:30:20.187Z,185
2017-06-09T14:31:35.142Z,190
2017-06-09T14:32:20.607Z,200
2017-06-09T14:33:20.608Z,200
2017-06-09T14:34:20.010Z,200
2017-06-09T14:35:35.264Z,195
2017-06-09T14:36:20.679Z,195
2017-06-09T14:37:20.715Z,190
2017-06-09T14:38:20.746Z,200
2017-06-09T14:39:20.774Z,215
2017-06-09T14:40:35.428Z,220
2017-06-09T14:41:20.836Z,220
2017-06-09T14:42:20.873Z,220
2017-06-09T14:43:20.903Z,220
2017-06-09T14:44:20.940Z,215
2017-06-09T14:45:20.970Z,210
2017-06-09T14:46:21.004Z,210
2017-06-09T14:47:21.031Z,210
2017-06-09T14:48:35.682Z,215
2017-06-09T14:49:35.713Z,210
2017-06-09T14:50:21.134Z,185
2017-06-09T14:51:20.854Z,180
2017-06-09T14:52:21.189Z,195
2017-06-09T14:53:20.917Z,200
2017-06-09T14:54:20.950Z,190
2017-06-09T14:56:20.711Z,180
2017-06-09T14:57:35.666Z,195
2017-06-09T14:58:21.380Z,195
2017-06-09T14:59:21.156Z,195
2017-06-09T15:00:21.442Z,210
2017-06-09T15:01:35.796Z,220